sensor_id;sensor_type;location;lat;lon;timestamp;pressure;altitude;pressure_sealevel;temperature;humidity
14295;BME280;7231;59.370;18.016;2023-01-28T00:01:42;102099.06;;;-2.08;95.14
14295;BME280;7231;59.370;18.016;2023-01-28T00:04:10;102106.94;;;-2.06;95.19
14295;BME280;7231;59.370;18.016;2023-01-28T00:06:38;102100.13;;;-2.06;94.87
14295;BME280;7231;59.370;18.016;2023-01-28T00:09:06;102098.63;;;-2.04;94.97
14295;BME280;7231;59.370;18.016;2023-01-28T00:11:34;102087.56;;;-2.03;94.90
14295;BME280;7231;59.370;18.016;2023-01-28T00:14:02;102076.38;;;-2.03;95.01
14295;BME280;7231;59.370;18.016;2023-01-28T00:16:31;102073.97;;;-2.02;94.98
14295;BME280;7231;59.370;18.016;2023-01-28T00:18:59;102076.09;;;-1.98;95.18
14295;BME280;7231;59.370;18.016;2023-01-28T00:21:27;102071.84;;;-1.97;94.81
14295;BME280;7231;59.370;18.016;2023-01-28T00:23:55;102067.75;;;-1.95;94.71
14295;BME280;7231;59.370;18.016;2023-01-28T00:26:24;102055.81;;;-1.94;95.00
14295;BME280;7231;59.370;18.016;2023-01-28T00:28:52;102019.88;;;-2.12;95.08
14295;BME280;7231;59.370;18.016;2023-01-28T00:31:22;102046.44;;;-1.94;94.92
14295;BME280;7231;59.370;18.016;2023-01-28T00:33:52;102039.63;;;-1.93;95.00
14295;BME280;7231;59.370;18.016;2023-01-28T00:36:22;102043.13;;;-1.93;94.92
14295;BME280;7231;59.370;18.016;2023-01-28T00:38:51;102042.66;;;-1.89;95.04
14295;BME280;7231;59.370;18.016;2023-01-28T00:41:21;102039.75;;;-1.83;94.97
14295;BME280;7231;59.370;18.016;2023-01-28T00:43:50;102008.66;;;-1.95;94.80
14295;BME280;7231;59.370;18.016;2023-01-28T00:46:19;102034.91;;;-1.80;94.68
14295;BME280;7231;59.370;18.016;2023-01-28T00:48:48;101963.50;;;-2.19;94.53
14295;BME280;7231;59.370;18.016;2023-01-28T00:51:18;102032.19;;;-1.82;94.50
14295;BME280;7231;59.370;18.016;2023-01-28T00:53:46;102023.72;;;-1.81;94.63
14295;BME280;7231;59.370;18.016;2023-01-28T00:56:16;102012.06;;;-1.77;94.78
14295;BME280;7231;59.370;18.016;2023-01-28T00:58:45;101998.50;;;-1.85;94.37
14295;BME280;7231;59.370;18.016;2023-01-28T01:01:15;101996.50;;;-1.79;94.23
14295;BME280;7231;59.370;18.016;2023-01-28T01:03:43;102008.59;;;-1.78;94.37
14295;BME280;7231;59.370;18.016;2023-01-28T01:06:14;102001.66;;;-1.79;94.09
14295;BME280;7231;59.370;18.016;2023-01-28T01:08:43;101940.06;;;-2.13;94.00
14295;BME280;7231;59.370;18.016;2023-01-28T01:11:16;101990.00;;;-1.84;94.03
14295;BME280;7231;59.370;18.016;2023-01-28T01:13:49;101995.59;;;-1.79;94.24
14295;BME280;7231;59.370;18.016;2023-01-28T01:16:17;102000.59;;;-1.81;93.88
14295;BME280;7231;59.370;18.016;2023-01-28T01:18:45;101987.59;;;-1.82;94.24
14295;BME280;7231;59.370;18.016;2023-01-28T01:21:15;101956.34;;;-1.96;93.86
14295;BME280;7231;59.370;18.016;2023-01-28T01:23:45;101963.56;;;-1.91;93.66
14295;BME280;7231;59.370;18.016;2023-01-28T01:26:14;101935.19;;;-2.02;93.68
14295;BME280;7231;59.370;18.016;2023-01-28T01:28:42;101966.13;;;-1.83;93.70
14295;BME280;7231;59.370;18.016;2023-01-28T01:31:11;101962.78;;;-1.82;93.62
14295;BME280;7231;59.370;18.016;2023-01-28T01:33:41;101955.06;;;-1.82;93.69
14295;BME280;7231;59.370;18.016;2023-01-28T01:36:10;101951.75;;;-1.81;93.57
14295;BME280;7231;59.370;18.016;2023-01-28T01:38:39;101953.69;;;-1.78;93.39
14295;BME280;7231;59.370;18.016;2023-01-28T01:41:09;101870.25;;;-2.18;93.37
14295;BME280;7231;59.370;18.016;2023-01-28T01:43:46;101950.50;;;-1.76;93.28
14295;BME280;7231;59.370;18.016;2023-01-28T01:46:16;101949.91;;;-1.73;93.12
14295;BME280;7231;59.370;18.016;2023-01-28T01:48:46;101866.31;;;-2.14;92.94
14295;BME280;7231;59.370;18.016;2023-01-28T01:51:17;101938.09;;;-1.71;92.92
14295;BME280;7231;59.370;18.016;2023-01-28T01:53:49;101759.72;;;-2.64;92.64
14295;BME280;7231;59.370;18.016;2023-01-28T01:56:22;101922.81;;;-1.70;92.58
14295;BME280;7231;59.370;18.016;2023-01-28T01:58:54;101929.63;;;-1.70;92.62
14295;BME280;7231;59.370;18.016;2023-01-28T02:01:25;101895.38;;;-1.88;92.62
14295;BME280;7231;59.370;18.016;2023-01-28T02:03:58;101913.28;;;-1.71;92.60
14295;BME280;7231;59.370;18.016;2023-01-28T02:06:30;101914.19;;;-1.70;92.56
14295;BME280;7231;59.370;18.016;2023-01-28T02:08:58;101913.28;;;-1.71;92.27
14295;BME280;7231;59.370;18.016;2023-01-28T02:11:29;101869.97;;;-1.85;92.17
14295;BME280;7231;59.370;18.016;2023-01-28T02:14:01;101885.75;;;-1.72;92.41
14295;BME280;7231;59.370;18.016;2023-01-28T02:16:31;101871.25;;;-1.71;92.11
14295;BME280;7231;59.370;18.016;2023-01-28T02:18:59;101877.28;;;-1.71;92.16
14295;BME280;7231;59.370;18.016;2023-01-28T02:21:50;101869.44;;;-1.72;92.18
14295;BME280;7231;59.370;18.016;2023-01-28T02:24:51;101869.44;;;-1.72;92.03
14295;BME280;7231;59.370;18.016;2023-01-28T02:27:30;101847.88;;;-1.83;92.04
14295;BME280;7231;59.370;18.016;2023-01-28T02:30:06;101825.97;;;-1.88;92.32
14295;BME280;7231;59.370;18.016;2023-01-28T02:32:42;101840.25;;;-1.73;92.24
14295;BME280;7231;59.370;18.016;2023-01-28T02:35:16;101840.25;;;-1.73;92.01
14295;BME280;7231;59.370;18.016;2023-01-28T02:37:52;101838.59;;;-1.72;91.83
14295;BME280;7231;59.370;18.016;2023-01-28T02:40:24;101811.75;;;-1.84;91.94
14295;BME280;7231;59.370;18.016;2023-01-28T02:42:56;101824.97;;;-1.71;91.74
14295;BME280;7231;59.370;18.016;2023-01-28T02:45:30;101802.34;;;-1.84;91.95
14295;BME280;7231;59.370;18.016;2023-01-28T02:48:21;101788.31;;;-1.87;91.86
14295;BME280;7231;59.370;18.016;2023-01-28T02:50:53;101821.91;;;-1.67;91.93
14295;BME280;7231;59.370;18.016;2023-01-28T02:53:32;101809.19;;;-1.66;92.01
14295;BME280;7231;59.370;18.016;2023-01-28T02:56:16;101806.13;;;-1.61;91.65
14295;BME280;7231;59.370;18.016;2023-01-28T02:58:52;101795.84;;;-1.61;91.66
14295;BME280;7231;59.370;18.016;2023-01-28T03:01:32;101802.03;;;-1.59;91.55
14295;BME280;7231;59.370;18.016;2023-01-28T03:04:08;101746.44;;;-1.86;91.66
14295;BME280;7231;59.370;18.016;2023-01-28T03:06:40;101790.38;;;-1.56;91.63
14295;BME280;7231;59.370;18.016;2023-01-28T03:09:11;101782.78;;;-1.54;91.64
14295;BME280;7231;59.370;18.016;2023-01-28T03:11:51;101754.44;;;-1.65;91.56
14295;BME280;7231;59.370;18.016;2023-01-28T03:14:38;101742.69;;;-1.71;91.67
14295;BME280;7231;59.370;18.016;2023-01-28T03:17:29;101766.09;;;-1.49;91.37
14295;BME280;7231;59.370;18.016;2023-01-28T03:20:16;101774.88;;;-1.47;91.50
14295;BME280;7231;59.370;18.016;2023-01-28T03:23:07;101760.75;;;-1.42;91.47
14295;BME280;7231;59.370;18.016;2023-01-28T03:25:57;101752.41;;;-1.40;91.47
14295;BME280;7231;59.370;18.016;2023-01-28T03:28:45;101756.16;;;-1.36;91.52
14295;BME280;7231;59.370;18.016;2023-01-28T03:31:32;101758.09;;;-1.34;91.54
14295;BME280;7231;59.370;18.016;2023-01-28T03:34:21;101751.69;;;-1.28;91.36
14295;BME280;7231;59.370;18.016;2023-01-28T03:37:07;101734.03;;;-1.34;91.26
14295;BME280;7231;59.370;18.016;2023-01-28T03:39:36;101733.06;;;-1.26;91.46
14295;BME280;7231;59.370;18.016;2023-01-28T03:42:07;101733.75;;;-1.18;91.27
14295;BME280;7231;59.370;18.016;2023-01-28T03:44:35;101736.09;;;-1.11;90.95
14295;BME280;7231;59.370;18.016;2023-01-28T03:47:24;101726.19;;;-1.07;90.93
14295;BME280;7231;59.370;18.016;2023-01-28T03:49:54;101587.22;;;-1.85;91.04
14295;BME280;7231;59.370;18.016;2023-01-28T03:52:24;101701.47;;;-1.15;90.67
14295;BME280;7231;59.370;18.016;2023-01-28T03:54:52;101713.88;;;-1.01;90.77
14295;BME280;7231;59.370;18.016;2023-01-28T03:57:22;101707.19;;;-0.99;90.92
14295;BME280;7231;59.370;18.016;2023-01-28T03:59:50;101713.50;;;-0.95;91.24
14295;BME280;7231;59.370;18.016;2023-01-28T04:02:20;101709.66;;;-0.90;91.36
14295;BME280;7231;59.370;18.016;2023-01-28T04:04:48;101698.72;;;-0.87;91.17
14295;BME280;7231;59.370;18.016;2023-01-28T04:07:18;101697.47;;;-0.82;91.04
14295;BME280;7231;59.370;18.016;2023-01-28T04:09:46;101688.47;;;-0.77;91.29
14295;BME280;7231;59.370;18.016;2023-01-28T04:12:14;101681.91;;;-0.74;90.96
14295;BME280;7231;59.370;18.016;2023-01-28T04:14:41;101673.53;;;-0.71;91.07
14295;BME280;7231;59.370;18.016;2023-01-28T04:17:09;101670.44;;;-0.67;90.86
14295;BME280;7231;59.370;18.016;2023-01-28T04:19:37;101667.63;;;-0.60;90.68
14295;BME280;7231;59.370;18.016;2023-01-28T04:22:07;101650.13;;;-0.54;90.69
14295;BME280;7231;59.370;18.016;2023-01-28T04:24:38;101643.03;;;-0.56;90.48
14295;BME280;7231;59.370;18.016;2023-01-28T04:27:06;101641.63;;;-0.53;90.67
14295;BME280;7231;59.370;18.016;2023-01-28T04:29:34;101656.81;;;-0.36;89.98
14295;BME280;7231;59.370;18.016;2023-01-28T04:32:02;101656.31;;;-0.31;90.20
14295;BME280;7231;59.370;18.016;2023-01-28T04:34:30;101647.16;;;-0.28;89.72
14295;BME280;7231;59.370;18.016;2023-01-28T04:36:58;101632.84;;;-0.24;90.01
14295;BME280;7231;59.370;18.016;2023-01-28T04:39:26;101621.25;;;-0.19;89.69
14295;BME280;7231;59.370;18.016;2023-01-28T04:41:55;101617.38;;;-0.14;89.70
14295;BME280;7231;59.370;18.016;2023-01-28T04:44:23;101618.41;;;-0.12;89.58
14295;BME280;7231;59.370;18.016;2023-01-28T04:46:51;101603.88;;;-0.22;89.28
14295;BME280;7231;59.370;18.016;2023-01-28T04:49:19;101609.25;;;-0.09;89.20
14295;BME280;7231;59.370;18.016;2023-01-28T04:51:47;101621.19;;;0.01;88.92
14295;BME280;7231;59.370;18.016;2023-01-28T04:54:16;101585.91;;;0.00;88.75
14295;BME280;7231;59.370;18.016;2023-01-28T04:56:44;101600.78;;;0.14;88.69
14295;BME280;7231;59.370;18.016;2023-01-28T04:59:13;101607.09;;;0.18;89.19
14295;BME280;7231;59.370;18.016;2023-01-28T05:01:41;101594.59;;;0.22;88.64
14295;BME280;7231;59.370;18.016;2023-01-28T05:04:09;101586.19;;;0.25;88.28
14295;BME280;7231;59.370;18.016;2023-01-28T05:06:37;101573.41;;;0.26;88.93
14295;BME280;7231;59.370;18.016;2023-01-28T05:09:05;101567.47;;;0.27;88.43
14295;BME280;7231;59.370;18.016;2023-01-28T05:11:33;101566.84;;;0.30;88.76
14295;BME280;7231;59.370;18.016;2023-01-28T05:14:04;101445.31;;;-0.39;88.44
14295;BME280;7231;59.370;18.016;2023-01-28T05:16:34;101543.28;;;0.15;88.60
14295;BME280;7231;59.370;18.016;2023-01-28T05:19:02;101533.88;;;0.16;88.90
14295;BME280;7231;59.370;18.016;2023-01-28T05:21:30;101546.84;;;0.27;88.94
14295;BME280;7231;59.370;18.016;2023-01-28T05:23:58;101546.84;;;0.27;89.16
14295;BME280;7231;59.370;18.016;2023-01-28T05:26:26;101550.31;;;0.28;89.50
14295;BME280;7231;59.370;18.016;2023-01-28T05:28:54;101545.81;;;0.25;89.04
14295;BME280;7231;59.370;18.016;2023-01-28T05:31:22;101521.59;;;0.23;89.51
14295;BME280;7231;59.370;18.016;2023-01-28T05:33:51;101525.97;;;0.24;89.21
14295;BME280;7231;59.370;18.016;2023-01-28T05:36:19;101523.38;;;0.24;89.51
14295;BME280;7231;59.370;18.016;2023-01-28T05:38:47;101519.13;;;0.25;88.96
14295;BME280;7231;59.370;18.016;2023-01-28T05:41:15;101520.03;;;0.25;89.00
14295;BME280;7231;59.370;18.016;2023-01-28T05:43:43;101485.59;;;0.03;89.59
14295;BME280;7231;59.370;18.016;2023-01-28T05:46:11;101446.75;;;-0.10;89.19
14295;BME280;7231;59.370;18.016;2023-01-28T05:48:39;101520.53;;;0.31;89.49
14295;BME280;7231;59.370;18.016;2023-01-28T05:51:08;101502.75;;;0.24;89.10
14295;BME280;7231;59.370;18.016;2023-01-28T05:53:36;101507.22;;;0.37;89.31
14295;BME280;7231;59.370;18.016;2023-01-28T05:56:04;101508.34;;;0.41;89.06
14295;BME280;7231;59.370;18.016;2023-01-28T05:58:32;101512.06;;;0.44;89.52
14295;BME280;7231;59.370;18.016;2023-01-28T06:01:00;101501.28;;;0.38;88.77
14295;BME280;7231;59.370;18.016;2023-01-28T06:03:28;101502.91;;;0.48;88.64
14295;BME280;7231;59.370;18.016;2023-01-28T06:05:56;101497.75;;;0.48;89.09
14295;BME280;7231;59.370;18.016;2023-01-28T06:08:26;101499.66;;;0.50;89.08
14295;BME280;7231;59.370;18.016;2023-01-28T06:10:54;101498.63;;;0.48;88.46
14295;BME280;7231;59.370;18.016;2023-01-28T06:13:22;101489.81;;;0.35;88.58
14295;BME280;7231;59.370;18.016;2023-01-28T06:15:49;101508.97;;;0.48;89.00
14295;BME280;7231;59.370;18.016;2023-01-28T06:18:17;101452.78;;;0.12;88.91
14295;BME280;7231;59.370;18.016;2023-01-28T06:20:47;101484.16;;;0.28;89.54
14295;BME280;7231;59.370;18.016;2023-01-28T06:23:16;101505.91;;;0.42;88.99
14295;BME280;7231;59.370;18.016;2023-01-28T06:25:45;101513.50;;;0.41;89.28
14295;BME280;7231;59.370;18.016;2023-01-28T06:28:13;101495.50;;;0.30;88.99
14295;BME280;7231;59.370;18.016;2023-01-28T06:30:41;101505.53;;;0.38;88.93
14295;BME280;7231;59.370;18.016;2023-01-28T06:33:09;101508.88;;;0.37;89.00
14295;BME280;7231;59.370;18.016;2023-01-28T06:35:37;101511.34;;;0.35;89.07
14295;BME280;7231;59.370;18.016;2023-01-28T06:38:06;101482.41;;;0.17;89.08
14295;BME280;7231;59.370;18.016;2023-01-28T06:40:33;101495.16;;;0.26;89.04
14295;BME280;7231;59.370;18.016;2023-01-28T06:43:03;101504.94;;;0.30;89.62
14295;BME280;7231;59.370;18.016;2023-01-28T06:45:32;101436.69;;;-0.07;89.29
14295;BME280;7231;59.370;18.016;2023-01-28T06:48:00;101497.84;;;0.27;89.48
14295;BME280;7231;59.370;18.016;2023-01-28T06:50:29;101462.38;;;0.03;89.24
14295;BME280;7231;59.370;18.016;2023-01-28T06:52:57;101501.19;;;0.26;89.53
14295;BME280;7231;59.370;18.016;2023-01-28T06:55:25;101490.88;;;0.26;89.73
14295;BME280;7231;59.370;18.016;2023-01-28T06:57:53;101493.59;;;0.28;89.95
14295;BME280;7231;59.370;18.016;2023-01-28T07:00:22;101503.91;;;0.28;90.01
14295;BME280;7231;59.370;18.016;2023-01-28T07:02:54;101496.16;;;0.28;89.84
14295;BME280;7231;59.370;18.016;2023-01-28T07:05:22;101484.81;;;0.26;89.86
14295;BME280;7231;59.370;18.016;2023-01-28T07:07:50;101470.66;;;0.21;89.95
14295;BME280;7231;59.370;18.016;2023-01-28T07:10:18;101401.19;;;-0.21;90.59
14295;BME280;7231;59.370;18.016;2023-01-28T07:12:46;101482.13;;;0.24;90.70
14295;BME280;7231;59.370;18.016;2023-01-28T07:15:14;101477.88;;;0.25;90.89
14295;BME280;7231;59.370;18.016;2023-01-28T07:17:44;101471.81;;;0.24;90.57
14295;BME280;7231;59.370;18.016;2023-01-28T07:20:14;101481.34;;;0.25;91.05
14295;BME280;7231;59.370;18.016;2023-01-28T07:22:43;101478.00;;;0.26;90.83
14295;BME280;7231;59.370;18.016;2023-01-28T07:25:13;101467.69;;;0.26;91.49
14295;BME280;7231;59.370;18.016;2023-01-28T07:27:52;101435.88;;;0.16;90.94
14295;BME280;7231;59.370;18.016;2023-01-28T07:30:20;101402.56;;;-0.15;91.49
14295;BME280;7231;59.370;18.016;2023-01-28T07:32:54;101473.63;;;0.25;91.64
14295;BME280;7231;59.370;18.016;2023-01-28T07:35:23;101478.66;;;0.24;91.91
14295;BME280;7231;59.370;18.016;2023-01-28T07:37:52;101470.78;;;0.22;91.63
14295;BME280;7231;59.370;18.016;2023-01-28T07:40:20;101476.84;;;0.23;91.71
14295;BME280;7231;59.370;18.016;2023-01-28T07:42:49;101453.03;;;0.15;91.96
14295;BME280;7231;59.370;18.016;2023-01-28T07:45:17;101465.63;;;0.22;91.73
14295;BME280;7231;59.370;18.016;2023-01-28T07:47:54;101348.66;;;-0.34;92.09
14295;BME280;7231;59.370;18.016;2023-01-28T07:50:22;101403.53;;;-0.03;91.98
14295;BME280;7231;59.370;18.016;2023-01-28T07:52:51;101446.25;;;0.27;92.28
14295;BME280;7231;59.370;18.016;2023-01-28T07:55:19;101441.09;;;0.27;92.34
14295;BME280;7231;59.370;18.016;2023-01-28T07:57:48;101447.16;;;0.28;92.32
14295;BME280;7231;59.370;18.016;2023-01-28T08:00:17;101446.25;;;0.27;92.96
14295;BME280;7231;59.370;18.016;2023-01-28T08:02:45;101453.22;;;0.28;93.00
14295;BME280;7231;59.370;18.016;2023-01-28T08:05:16;101437.09;;;0.31;93.03
14295;BME280;7231;59.370;18.016;2023-01-28T08:07:46;101428.44;;;0.30;93.09
14295;BME280;7231;59.370;18.016;2023-01-28T08:10:16;101422.28;;;0.28;92.95
14295;BME280;7231;59.370;18.016;2023-01-28T08:12:51;101413.75;;;0.29;92.79
14295;BME280;7231;59.370;18.016;2023-01-28T08:15:19;101423.28;;;0.30;93.13
14295;BME280;7231;59.370;18.016;2023-01-28T08:17:47;101406.56;;;0.25;93.48
14295;BME280;7231;59.370;18.016;2023-01-28T08:20:17;101418.25;;;0.32;93.68
14295;BME280;7231;59.370;18.016;2023-01-28T08:22:45;101383.41;;;0.15;93.31
14295;BME280;7231;59.370;18.016;2023-01-28T08:25:13;101395.09;;;0.22;93.65
14295;BME280;7231;59.370;18.016;2023-01-28T08:27:41;101413.09;;;0.32;93.46
14295;BME280;7231;59.370;18.016;2023-01-28T08:30:10;101384.78;;;0.22;93.43
14295;BME280;7231;59.370;18.016;2023-01-28T08:32:38;101395.94;;;0.32;94.32
14295;BME280;7231;59.370;18.016;2023-01-28T08:35:07;101395.28;;;0.35;94.17
14295;BME280;7231;59.370;18.016;2023-01-28T08:37:36;101384.06;;;0.35;94.15
14295;BME280;7231;59.370;18.016;2023-01-28T08:40:05;101379.91;;;0.37;94.60
14295;BME280;7231;59.370;18.016;2023-01-28T08:42:33;101377.09;;;0.33;94.29
14295;BME280;7231;59.370;18.016;2023-01-28T08:45:01;101381.72;;;0.38;94.90
14295;BME280;7231;59.370;18.016;2023-01-28T08:47:29;101387.78;;;0.38;95.11
14295;BME280;7231;59.370;18.016;2023-01-28T08:49:57;101389.69;;;0.41;94.47
14295;BME280;7231;59.370;18.016;2023-01-28T08:52:25;101401.03;;;0.43;94.47
14295;BME280;7231;59.370;18.016;2023-01-28T08:54:54;101331.13;;;0.06;94.50
14295;BME280;7231;59.370;18.016;2023-01-28T08:57:22;101393.53;;;0.46;94.77
14295;BME280;7231;59.370;18.016;2023-01-28T08:59:50;101368.69;;;0.36;95.01
14295;BME280;7231;59.370;18.016;2023-01-28T09:02:18;101390.28;;;0.48;95.44
14295;BME280;7231;59.370;18.016;2023-01-28T09:04:57;101388.84;;;0.52;95.38
14295;BME280;7231;59.370;18.016;2023-01-28T09:07:25;101377.50;;;0.50;95.93
14295;BME280;7231;59.370;18.016;2023-01-28T09:09:54;101368.78;;;0.59;95.49
14295;BME280;7231;59.370;18.016;2023-01-28T09:12:22;101364.63;;;0.61;95.86
14295;BME280;7231;59.370;18.016;2023-01-28T09:14:50;101355.22;;;0.62;95.94
14295;BME280;7231;59.370;18.016;2023-01-28T09:17:18;101360.38;;;0.62;95.78
14295;BME280;7231;59.370;18.016;2023-01-28T09:19:46;101340.84;;;0.65;95.93
14295;BME280;7231;59.370;18.016;2023-01-28T09:22:15;101308.41;;;0.57;95.59
14295;BME280;7231;59.370;18.016;2023-01-28T09:24:42;101333.56;;;0.72;96.28
14295;BME280;7231;59.370;18.016;2023-01-28T09:27:12;101338.97;;;0.75;95.75
14295;BME280;7231;59.370;18.016;2023-01-28T09:29:40;101350.19;;;0.75;95.82
14295;BME280;7231;59.370;18.016;2023-01-28T09:32:07;101298.56;;;0.75;96.38
14295;BME280;7231;59.370;18.016;2023-01-28T09:34:36;101316.63;;;0.75;96.07
14295;BME280;7231;59.370;18.016;2023-01-28T09:37:04;101311.03;;;0.81;95.94
14295;BME280;7231;59.370;18.016;2023-01-28T09:39:32;101319.91;;;0.84;96.26
14295;BME280;7231;59.370;18.016;2023-01-28T09:42:15;101326.41;;;0.91;96.83
14295;BME280;7231;59.370;18.016;2023-01-28T09:44:59;101310.59;;;0.98;96.72
14295;BME280;7231;59.370;18.016;2023-01-28T09:47:31;101308.22;;;1.01;96.91
14295;BME280;7231;59.370;18.016;2023-01-28T09:50:04;101275.56;;;0.90;96.56
14295;BME280;7231;59.370;18.016;2023-01-28T09:52:35;101288.91;;;1.08;96.94
14295;BME280;7231;59.370;18.016;2023-01-28T09:55:06;101294.41;;;1.12;96.54
14295;BME280;7231;59.370;18.016;2023-01-28T09:57:43;101291.38;;;1.18;96.98
14295;BME280;7231;59.370;18.016;2023-01-28T10:00:13;101287.56;;;1.13;97.34
14295;BME280;7231;59.370;18.016;2023-01-28T10:02:54;101282.59;;;1.27;96.69
14295;BME280;7231;59.370;18.016;2023-01-28T10:05:32;101287.31;;;1.33;96.62
14295;BME280;7231;59.370;18.016;2023-01-28T10:08:19;101293.59;;;1.37;96.70
14295;BME280;7231;59.370;18.016;2023-01-28T10:10:57;101286.19;;;1.41;97.61
14295;BME280;7231;59.370;18.016;2023-01-28T10:13:38;101160.31;;;0.79;98.07
14295;BME280;7231;59.370;18.016;2023-01-28T10:16:25;101273.56;;;1.57;97.44
14295;BME280;7231;59.370;18.016;2023-01-28T10:19:00;101275.31;;;1.70;97.09
14295;BME280;7231;59.370;18.016;2023-01-28T10:21:33;101281.81;;;1.77;97.20
14295;BME280;7231;59.370;18.016;2023-01-28T10:24:08;101258.44;;;1.75;97.03
14295;BME280;7231;59.370;18.016;2023-01-28T10:26:39;101257.97;;;1.81;96.62
14295;BME280;7231;59.370;18.016;2023-01-28T10:29:12;101246.00;;;1.94;97.64
14295;BME280;7231;59.370;18.016;2023-01-28T10:31:49;101251.69;;;2.02;97.23
14295;BME280;7231;59.370;18.016;2023-01-28T10:34:19;101241.44;;;2.04;96.84
14295;BME280;7231;59.370;18.016;2023-01-28T10:36:49;101234.22;;;2.11;97.66
14295;BME280;7231;59.370;18.016;2023-01-28T10:39:20;101236.63;;;2.21;97.32
14295;BME280;7231;59.370;18.016;2023-01-28T10:41:49;101219.31;;;2.20;96.29
14295;BME280;7231;59.370;18.016;2023-01-28T10:44:30;101238.22;;;2.19;96.23
14295;BME280;7231;59.370;18.016;2023-01-28T10:47:03;101241.59;;;2.18;95.64
14295;BME280;7231;59.370;18.016;2023-01-28T10:49:42;101237.69;;;2.12;95.25
14295;BME280;7231;59.370;18.016;2023-01-28T10:52:13;101239.69;;;2.16;95.66
14295;BME280;7231;59.370;18.016;2023-01-28T10:54:42;101254.25;;;2.27;96.12
14295;BME280;7231;59.370;18.016;2023-01-28T10:57:11;101231.97;;;2.29;95.64
14295;BME280;7231;59.370;18.016;2023-01-28T10:59:42;101233.16;;;2.34;95.15
14295;BME280;7231;59.370;18.016;2023-01-28T11:02:23;101213.38;;;2.35;95.23
14295;BME280;7231;59.370;18.016;2023-01-28T11:05:13;101175.03;;;2.16;94.98
14295;BME280;7231;59.370;18.016;2023-01-28T11:07:42;101216.97;;;2.37;95.42
14295;BME280;7231;59.370;18.016;2023-01-28T11:10:29;101113.69;;;1.88;95.36
14295;BME280;7231;59.370;18.016;2023-01-28T11:13:00;101221.13;;;2.61;95.34
14295;BME280;7231;59.370;18.016;2023-01-28T11:15:31;101214.16;;;2.73;95.34
14295;BME280;7231;59.370;18.016;2023-01-28T11:18:00;101217.25;;;2.81;95.18
14295;BME280;7231;59.370;18.016;2023-01-28T11:20:34;101181.81;;;2.67;94.56
14295;BME280;7231;59.370;18.016;2023-01-28T11:23:04;101213.38;;;2.87;94.83
14295;BME280;7231;59.370;18.016;2023-01-28T11:25:33;101217.53;;;2.99;94.44
14295;BME280;7231;59.370;18.016;2023-01-28T11:28:04;101221.03;;;2.99;94.20
14295;BME280;7231;59.370;18.016;2023-01-28T11:30:35;101220.94;;;2.98;93.94
14295;BME280;7231;59.370;18.016;2023-01-28T11:33:13;101216.44;;;2.95;94.07
14295;BME280;7231;59.370;18.016;2023-01-28T11:35:52;101187.47;;;2.87;94.05
14295;BME280;7231;59.370;18.016;2023-01-28T11:38:23;101095.94;;;2.33;93.78
14295;BME280;7231;59.370;18.016;2023-01-28T11:40:52;101197.91;;;3.02;93.86
14295;BME280;7231;59.370;18.016;2023-01-28T11:43:22;101188.25;;;3.00;93.92
14295;BME280;7231;59.370;18.016;2023-01-28T11:45:59;101167.75;;;2.89;93.76
14295;BME280;7231;59.370;18.016;2023-01-28T11:48:37;101177.69;;;2.97;93.56
14295;BME280;7231;59.370;18.016;2023-01-28T11:51:21;101176.91;;;2.98;93.71
14295;BME280;7231;59.370;18.016;2023-01-28T11:53:59;101186.66;;;3.02;94.14
14295;BME280;7231;59.370;18.016;2023-01-28T11:59:37;101174.59;;;3.02;94.20
14295;BME280;7231;59.370;18.016;2023-01-28T12:02:20;101153.00;;;2.88;94.15
14295;BME280;7231;59.370;18.016;2023-01-28T12:05:10;101174.50;;;3.01;94.05
14295;BME280;7231;59.370;18.016;2023-01-28T12:07:47;101164.13;;;3.01;93.82
14295;BME280;7231;59.370;18.016;2023-01-28T12:10:22;101152.88;;;3.00;93.84
14295;BME280;7231;59.370;18.016;2023-01-28T12:13:03;101153.78;;;3.01;94.37
14295;BME280;7231;59.370;18.016;2023-01-28T12:19:13;101119.13;;;2.85;94.14
14295;BME280;7231;59.370;18.016;2023-01-28T12:22:00;101125.88;;;2.97;94.26
14295;BME280;7231;59.370;18.016;2023-01-28T12:24:42;101147.00;;;3.03;94.22
14295;BME280;7231;59.370;18.016;2023-01-28T12:27:24;101158.25;;;3.03;94.26
14295;BME280;7231;59.370;18.016;2023-01-28T12:30:01;101145.41;;;3.05;94.60
14295;BME280;7231;59.370;18.016;2023-01-28T12:32:41;101152.38;;;3.06;94.21
14295;BME280;7231;59.370;18.016;2023-01-28T12:35:26;101152.78;;;2.99;94.19
14295;BME280;7231;59.370;18.016;2023-01-28T12:37:59;101160.16;;;3.06;94.41
14295;BME280;7231;59.370;18.016;2023-01-28T12:40:52;101160.34;;;3.09;94.39
14295;BME280;7231;59.370;18.016;2023-01-28T12:43:26;101166.31;;;3.08;94.34
14295;BME280;7231;59.370;18.016;2023-01-28T12:46:03;101043.56;;;2.50;94.62
14295;BME280;7231;59.370;18.016;2023-01-28T12:48:39;101164.91;;;3.13;94.37
14295;BME280;7231;59.370;18.016;2023-01-28T12:51:15;101157.13;;;3.13;94.71
14295;BME280;7231;59.370;18.016;2023-01-28T12:53:48;101159.72;;;3.13;94.49
14295;BME280;7231;59.370;18.016;2023-01-28T12:56:23;101016.22;;;2.40;94.68
14295;BME280;7231;59.370;18.016;2023-01-28T12:58:58;101154.84;;;3.17;94.38
14295;BME280;7231;59.370;18.016;2023-01-28T13:01:29;101151.53;;;3.20;94.46
14295;BME280;7231;59.370;18.016;2023-01-28T13:04:05;101156.00;;;3.22;94.45
14295;BME280;7231;59.370;18.016;2023-01-28T13:06:41;101141.28;;;3.21;94.35
14295;BME280;7231;59.370;18.016;2023-01-28T13:09:15;101068.75;;;2.80;94.39
14295;BME280;7231;59.370;18.016;2023-01-28T13:11:45;101096.31;;;2.93;94.35
14295;BME280;7231;59.370;18.016;2023-01-28T13:14:15;101113.31;;;3.03;94.16
14295;BME280;7231;59.370;18.016;2023-01-28T13:16:44;101150.94;;;3.24;94.10
14295;BME280;7231;59.370;18.016;2023-01-28T13:19:22;101135.50;;;3.12;94.45
14295;BME280;7231;59.370;18.016;2023-01-28T13:21:52;101005.75;;;2.39;93.75
14295;BME280;7231;59.370;18.016;2023-01-28T13:24:30;101134.91;;;3.16;94.18
14295;BME280;7231;59.370;18.016;2023-01-28T13:27:10;101144.06;;;3.24;93.88